createdAt,value
2023-01-31T00:01:26.076Z,96647.84
2023-01-31T00:03:53.801Z,96662.66
2023-01-31T00:06:21.417Z,96652.28
2023-01-31T00:08:48.750Z,96653.72
2023-01-31T00:11:16.486Z,96655.13
2023-01-31T00:13:43.054Z,96657.34
2023-01-31T00:16:10.753Z,96662.56
2023-01-31T00:18:39.220Z,96661.22
2023-01-31T00:21:10.235Z,96669.66
2023-01-31T00:23:39.228Z,96680.34
2023-01-31T00:26:11.805Z,96678.38
2023-01-31T00:28:39.403Z,96666.44
2023-01-31T00:31:06.293Z,96675.09
2023-01-31T00:33:33.362Z,96658.25
2023-01-31T00:36:03.087Z,96666.25
2023-01-31T00:38:29.539Z,96675.38
2023-01-31T00:40:55.988Z,96671.00
2023-01-31T00:43:22.551Z,96665.69
2023-01-31T00:45:49.109Z,96651.72
2023-01-31T00:48:15.650Z,96660.22
2023-01-31T00:50:42.166Z,96666.59
2023-01-31T00:53:08.700Z,96675.09
2023-01-31T00:55:35.638Z,96678.78
2023-01-31T00:58:02.232Z,96687.66
2023-01-31T01:00:28.809Z,96689.59
2023-01-31T01:02:55.349Z,96675.28
2023-01-31T01:05:22.298Z,96676.28
2023-01-31T01:07:48.957Z,96681.47
2023-01-31T01:10:15.509Z,96672.97
2023-01-31T01:12:44.178Z,96677.41
2023-01-31T01:15:10.743Z,96678.03
2023-01-31T01:17:39.065Z,96682.75
2023-01-31T01:20:05.835Z,96677.25
2023-01-31T01:22:35.577Z,96687.47
2023-01-31T01:25:02.515Z,96685.72
2023-01-31T01:27:31.520Z,96684.19
2023-01-31T01:29:59.150Z,96678.56
2023-01-31T01:32:25.846Z,96671.50
2023-01-31T01:34:53.120Z,96667.56
2023-01-31T01:37:22.668Z,96652.44
2023-01-31T01:39:49.862Z,96660.78
2023-01-31T01:42:19.287Z,96648.22
2023-01-31T01:44:45.776Z,96638.94
2023-01-31T01:47:31.540Z,96651.34
2023-01-31T01:50:00.873Z,96642.06
2023-01-31T01:52:28.836Z,96645.69
2023-01-31T01:54:57.713Z,96660.00
2023-01-31T01:57:33.350Z,96660.97
2023-01-31T02:00:30.002Z,96670.56
2023-01-31T02:02:58.416Z,96674.72
2023-01-31T02:05:29.826Z,96673.56
2023-01-31T02:07:56.468Z,96687.88
2023-01-31T02:10:26.837Z,96692.59
2023-01-31T02:12:53.471Z,96701.25
2023-01-31T02:15:22.969Z,96707.13
2023-01-31T02:17:49.493Z,96696.28
2023-01-31T02:20:15.988Z,96707.59
2023-01-31T02:22:48.257Z,96710.59
2023-01-31T02:25:19.908Z,96716.56
2023-01-31T02:28:05.429Z,96721.63
2023-01-31T02:30:33.868Z,96725.72
2023-01-31T02:33:02.551Z,96737.81
2023-01-31T02:35:29.983Z,96758.13
2023-01-31T02:37:59.446Z,96768.47
2023-01-31T02:40:26.561Z,96775.72
2023-01-31T02:43:02.846Z,96796.19
2023-01-31T02:45:43.995Z,96788.50
2023-01-31T02:48:10.499Z,96789.28
2023-01-31T02:50:55.505Z,96805.03
2023-01-31T02:53:29.874Z,96812.25
2023-01-31T02:56:23.748Z,96795.44
2023-01-31T02:58:55.100Z,96791.34
2023-01-31T03:01:24.672Z,96794.00
2023-01-31T03:03:51.973Z,96806.13
2023-01-31T03:06:24.751Z,96808.81
2023-01-31T03:09:02.474Z,96814.50
2023-01-31T03:11:49.418Z,96807.84
2023-01-31T03:14:24.972Z,96821.69
2023-01-31T03:17:30.219Z,96849.09
2023-01-31T03:20:02.648Z,96845.97
2023-01-31T03:22:33.014Z,96843.91
2023-01-31T03:25:00.550Z,96848.78
2023-01-31T03:27:27.573Z,96862.94
2023-01-31T03:29:57.211Z,96872.53
2023-01-31T03:32:27.582Z,96873.00
2023-01-31T03:34:55.407Z,96874.28
2023-01-31T03:37:30.952Z,96859.31
2023-01-31T03:40:03.724Z,96865.78
2023-01-31T03:42:46.059Z,96879.31
2023-01-31T03:45:12.484Z,96867.66
2023-01-31T03:47:43.386Z,96860.56
2023-01-31T03:50:14.113Z,96854.28
2023-01-31T03:52:46.584Z,96861.69
2023-01-31T03:55:19.204Z,96860.38
2023-01-31T03:57:49.708Z,96837.41
2023-01-31T04:00:19.054Z,96841.25
2023-01-31T04:02:48.867Z,96868.91
2023-01-31T04:05:21.361Z,96873.47
2023-01-31T04:07:48.125Z,96866.84
2023-01-31T04:10:18.630Z,96859.28
2023-01-31T04:12:45.831Z,96843.72
2023-01-31T04:15:15.257Z,96856.13
2023-01-31T04:17:44.114Z,96858.69
2023-01-31T04:20:12.121Z,96866.66
2023-01-31T04:22:39.187Z,96854.41
2023-01-31T04:25:06.150Z,96844.94
2023-01-31T04:27:33.308Z,96845.41
2023-01-31T04:30:01.617Z,96834.25
2023-01-31T04:32:28.388Z,96829.56
2023-01-31T04:34:55.749Z,96838.69
2023-01-31T04:37:25.817Z,96865.44
2023-01-31T04:39:52.324Z,96866.31
2023-01-31T04:42:18.884Z,96864.44
2023-01-31T04:44:45.394Z,96861.09
2023-01-31T04:47:11.857Z,96853.25
2023-01-31T04:49:38.361Z,96864.09
2023-01-31T04:52:05.000Z,96844.16
2023-01-31T04:54:31.704Z,96876.22
2023-01-31T04:56:58.367Z,96890.66
2023-01-31T04:59:25.062Z,96906.69
2023-01-31T05:01:51.612Z,96915.34
2023-01-31T05:04:19.845Z,96925.13
2023-01-31T05:06:46.351Z,96936.44
2023-01-31T05:09:13.079Z,96938.59
2023-01-31T05:11:39.577Z,96949.59
2023-01-31T05:14:06.960Z,96955.53
2023-01-31T05:16:33.522Z,96950.19
2023-01-31T05:19:02.244Z,96957.88
2023-01-31T05:21:28.717Z,96956.50
2023-01-31T05:23:55.193Z,96977.41
2023-01-31T05:26:21.717Z,96992.34
2023-01-31T05:28:48.220Z,96970.63
2023-01-31T05:31:15.063Z,96982.25
2023-01-31T05:33:43.591Z,96984.81
2023-01-31T05:36:11.424Z,97002.81
2023-01-31T05:38:37.869Z,97018.72
2023-01-31T05:41:04.491Z,97017.75
2023-01-31T05:43:31.294Z,97013.00
2023-01-31T05:45:58.041Z,97027.47
2023-01-31T05:48:26.587Z,97031.59
2023-01-31T05:50:53.071Z,97037.16
2023-01-31T05:53:21.646Z,97063.38
2023-01-31T05:55:48.508Z,97056.91
2023-01-31T05:58:17.125Z,97067.41
2023-01-31T06:00:43.577Z,97060.13
2023-01-31T06:03:10.410Z,97080.28
2023-01-31T06:05:36.945Z,97105.34
2023-01-31T06:08:03.509Z,97114.88
2023-01-31T06:10:30.089Z,97125.72
2023-01-31T06:12:56.539Z,97128.50
2023-01-31T06:15:23.269Z,97130.88
2023-01-31T06:17:49.858Z,97128.50
2023-01-31T06:20:17.233Z,97139.59
2023-01-31T06:22:43.706Z,97154.03
2023-01-31T06:25:10.426Z,97165.66
2023-01-31T06:27:36.956Z,97159.47
2023-01-31T06:30:05.892Z,97165.13
2023-01-31T06:32:32.919Z,97159.41
2023-01-31T06:35:00.187Z,97183.03
2023-01-31T06:37:27.745Z,97190.03
2023-01-31T06:39:54.284Z,97190.94
2023-01-31T06:42:20.877Z,97196.88
2023-01-31T06:44:47.426Z,97190.34
2023-01-31T06:47:14.750Z,97200.25
2023-01-31T06:49:41.632Z,97204.44
2023-01-31T06:52:08.117Z,97203.88
2023-01-31T06:54:34.675Z,97188.38
2023-01-31T06:57:01.125Z,97188.78
2023-01-31T06:59:27.566Z,97182.66
2023-01-31T07:01:54.621Z,97183.34
2023-01-31T07:04:21.283Z,97196.63
2023-01-31T07:06:47.750Z,97196.78
2023-01-31T07:09:14.431Z,97220.69
2023-01-31T07:11:40.907Z,97215.97
2023-01-31T07:14:07.374Z,97209.41
2023-01-31T07:16:33.949Z,97214.75
2023-01-31T07:19:00.588Z,97220.53
2023-01-31T07:21:27.130Z,97224.69
2023-01-31T07:23:54.494Z,97233.41
2023-01-31T07:26:21.139Z,97234.19
2023-01-31T07:28:47.884Z,97238.22
2023-01-31T07:31:16.492Z,97236.72
2023-01-31T07:33:43.072Z,97235.09
2023-01-31T07:36:12.806Z,97243.31
2023-01-31T07:38:39.528Z,97241.72
2023-01-31T07:41:06.167Z,97235.28
2023-01-31T07:43:33.280Z,97224.47
2023-01-31T07:45:59.951Z,97233.75
2023-01-31T07:48:26.689Z,97241.72
2023-01-31T07:50:57.971Z,97245.97
2023-01-31T07:53:24.552Z,97258.59
2023-01-31T07:55:51.012Z,97255.94
2023-01-31T07:58:19.773Z,97250.38
2023-01-31T08:01:05.049Z,97249.78
2023-01-31T08:03:34.715Z,97252.31
2023-01-31T08:06:01.281Z,97247.63
2023-01-31T08:08:27.861Z,97246.47
2023-01-31T08:10:54.413Z,97247.06
2023-01-31T08:13:22.337Z,97251.56
2023-01-31T08:15:51.360Z,97255.13
2023-01-31T08:18:17.852Z,97265.03
2023-01-31T08:20:45.004Z,97255.72
2023-01-31T08:23:11.535Z,97245.75
2023-01-31T08:25:40.033Z,97234.56
2023-01-31T08:28:06.481Z,97236.13
2023-01-31T08:30:33.102Z,97231.56
2023-01-31T08:33:00.064Z,97236.91
2023-01-31T08:35:28.016Z,97253.53
2023-01-31T08:38:03.731Z,97246.22
2023-01-31T08:40:37.142Z,97233.59
2023-01-31T08:43:03.639Z,97242.84
2023-01-31T08:45:30.567Z,97241.50
2023-01-31T08:47:58.052Z,97252.31
2023-01-31T08:50:28.147Z,97244.25
2023-01-31T08:52:54.854Z,97248.69
2023-01-31T08:55:22.318Z,97245.81
2023-01-31T08:57:59.367Z,97240.59
2023-01-31T09:00:26.487Z,97249.94
2023-01-31T09:02:56.934Z,97244.66
2023-01-31T09:05:24.043Z,97231.88
2023-01-31T09:07:50.639Z,97222.41
2023-01-31T09:10:20.157Z,97231.41
2023-01-31T09:12:47.133Z,97229.28
2023-01-31T09:15:13.979Z,97236.50
2023-01-31T09:17:40.892Z,97227.41
2023-01-31T09:20:10.078Z,97238.41
2023-01-31T09:22:39.244Z,97229.13
2023-01-31T09:25:06.232Z,97234.88
2023-01-31T09:27:33.344Z,97224.56
2023-01-31T09:30:00.113Z,97230.22
2023-01-31T09:32:26.661Z,97211.31
2023-01-31T09:34:53.220Z,97216.34
2023-01-31T09:37:20.649Z,97206.31
2023-01-31T09:39:47.195Z,97206.63
2023-01-31T09:42:43.177Z,97214.34
2023-01-31T09:45:16.960Z,97210.38
2023-01-31T09:47:46.354Z,97197.63
2023-01-31T09:50:12.853Z,97214.50
2023-01-31T09:52:39.597Z,97206.16
2023-01-31T09:55:08.307Z,97204.38
2023-01-31T09:57:49.908Z,97210.56
2023-01-31T10:00:22.504Z,97213.72
2023-01-31T10:03:06.607Z,97212.00
2023-01-31T10:05:53.870Z,97209.88
2023-01-31T10:08:41.159Z,97221.69
2023-01-31T10:11:14.099Z,97203.53
2023-01-31T10:13:49.768Z,97208.56
2023-01-31T10:16:36.549Z,97197.00
2023-01-31T10:19:06.560Z,97214.59
2023-01-31T10:21:38.825Z,97219.00
2023-01-31T10:24:24.019Z,97223.59
2023-01-31T10:26:53.478Z,97210.75
2023-01-31T10:29:29.478Z,97211.34
2023-01-31T10:31:59.162Z,97207.25
2023-01-31T10:34:29.514Z,97203.19
2023-01-31T10:36:59.053Z,97205.09
2023-01-31T10:39:43.887Z,97207.75
2023-01-31T10:42:22.073Z,97206.47
2023-01-31T10:44:54.601Z,97191.84
2023-01-31T10:47:31.904Z,97197.53
2023-01-31T10:49:58.427Z,97183.00
2023-01-31T10:52:31.185Z,97192.13
2023-01-31T10:55:16.445Z,97185.25
2023-01-31T10:57:43.183Z,97188.69
2023-01-31T11:00:29.792Z,97186.31
2023-01-31T11:02:57.395Z,97185.34
2023-01-31T11:05:27.337Z,97173.56
2023-01-31T11:07:54.046Z,97171.06
2023-01-31T11:10:25.172Z,97180.50
2023-01-31T11:13:02.108Z,97182.53
2023-01-31T11:15:30.097Z,97180.97
2023-01-31T11:18:01.011Z,97169.31
2023-01-31T11:20:30.362Z,97169.34
2023-01-31T11:22:58.047Z,97162.41
2023-01-31T11:25:25.507Z,97157.34
2023-01-31T11:27:57.808Z,97153.72
2023-01-31T11:30:30.831Z,97147.75
2023-01-31T11:32:57.908Z,97144.72
2023-01-31T11:35:27.825Z,97142.34
2023-01-31T11:37:57.726Z,97140.31
2023-01-31T11:40:27.946Z,97140.66
2023-01-31T11:43:01.698Z,97143.47
2023-01-31T11:45:30.900Z,97123.13
2023-01-31T11:47:58.814Z,97109.44
2023-01-31T11:50:37.593Z,97096.50
2023-01-31T11:53:05.296Z,97108.16
2023-01-31T11:55:36.605Z,97119.25
2023-01-31T11:58:06.357Z,97101.31
2023-01-31T12:00:33.564Z,97104.88
2023-01-31T12:03:09.130Z,97100.97
2023-01-31T12:05:44.020Z,97102.31
2023-01-31T12:08:29.139Z,97094.41
2023-01-31T12:10:57.124Z,97092.66
2023-01-31T12:13:24.114Z,97097.56
2023-01-31T12:15:58.958Z,97093.16
2023-01-31T12:18:27.625Z,97088.53
2023-01-31T12:21:03.220Z,97085.19
2023-01-31T12:23:50.616Z,97084.41
2023-01-31T12:26:26.366Z,97072.81
2023-01-31T12:29:10.888Z,97058.75
2023-01-31T12:31:50.656Z,97070.66
2023-01-31T12:34:33.983Z,97067.16
2023-01-31T12:37:03.378Z,97067.78
2023-01-31T12:39:50.223Z,97062.66
2023-01-31T12:42:28.192Z,97063.34
2023-01-31T12:45:12.210Z,97056.66
2023-01-31T12:47:46.778Z,97051.78
2023-01-31T12:50:36.285Z,97049.34
2023-01-31T12:53:18.423Z,97025.28
2023-01-31T12:55:58.513Z,97021.44
2023-01-31T12:58:43.752Z,97016.63
2023-01-31T13:01:16.759Z,97014.16
2023-01-31T13:04:07.472Z,97007.16
2023-01-31T13:06:33.987Z,97004.41
2023-01-31T13:09:11.119Z,97002.41
2023-01-31T13:11:42.897Z,96989.13
2023-01-31T13:14:21.714Z,96960.16
2023-01-31T13:16:53.402Z,96928.50
2023-01-31T13:19:23.732Z,96911.69
2023-01-31T13:21:53.812Z,96920.56
2023-01-31T13:24:49.854Z,96914.38
2023-01-31T13:27:21.972Z,96908.84
2023-01-31T13:30:00.512Z,96889.53
2023-01-31T13:32:29.123Z,96902.91
2023-01-31T13:35:17.270Z,96927.97
2023-01-31T13:37:46.041Z,96928.06
2023-01-31T13:40:24.013Z,96928.06
2023-01-31T13:42:50.693Z,96928.63
2023-01-31T13:45:50.450Z,96927.06
2023-01-31T13:48:22.775Z,96921.66
2023-01-31T13:50:54.601Z,96920.19
2023-01-31T13:53:24.218Z,96909.38
2023-01-31T13:55:51.420Z,96920.63
2023-01-31T13:58:27.300Z,96916.81
2023-01-31T14:00:58.945Z,96908.59
2023-01-31T14:03:25.997Z,96912.22
2023-01-31T14:05:52.509Z,96915.44
2023-01-31T14:08:25.250Z,96913.53
2023-01-31T14:10:52.204Z,96922.44
2023-01-31T14:13:34.117Z,96919.84
2023-01-31T14:16:01.437Z,96911.44
2023-01-31T14:18:41.549Z,96912.47
2023-01-31T14:21:27.091Z,96866.16
2023-01-31T14:23:53.620Z,96838.66
2023-01-31T14:26:39.648Z,96846.72
2023-01-31T14:29:10.425Z,96845.88
2023-01-31T14:31:39.278Z,96798.25
2023-01-31T14:34:06.122Z,96771.50
2023-01-31T14:36:36.906Z,96757.53
2023-01-31T14:39:18.323Z,96765.88
2023-01-31T14:41:47.831Z,96719.06
2023-01-31T14:44:29.374Z,96724.97
2023-01-31T14:47:07.369Z,96728.06
2023-01-31T14:49:34.302Z,96754.81
2023-01-31T14:52:15.471Z,96759.09
2023-01-31T14:54:50.853Z,96767.72
2023-01-31T14:57:39.709Z,96714.50
2023-01-31T15:00:16.799Z,96663.44
2023-01-31T15:02:43.388Z,96658.53
2023-01-31T15:05:13.428Z,96638.41
2023-01-31T15:07:58.783Z,96571.72
2023-01-31T15:10:44.049Z,96541.84
2023-01-31T15:13:29.773Z,96520.25
2023-01-31T15:15:58.184Z,96465.84
2023-01-31T15:18:26.866Z,96384.13
2023-01-31T15:20:57.478Z,96413.28
2023-01-31T15:23:26.266Z,96433.03
2023-01-31T15:25:54.164Z,96432.13
2023-01-31T15:28:22.635Z,96397.13
2023-01-31T15:30:49.778Z,96406.41
2023-01-31T15:33:42.411Z,96470.06
2023-01-31T15:36:31.967Z,96525.94
2023-01-31T15:39:02.896Z,96473.50
2023-01-31T15:41:37.670Z,96457.34
2023-01-31T15:44:12.039Z,96467.34
2023-01-31T15:46:38.617Z,96477.81
2023-01-31T15:49:36.869Z,96451.50
2023-01-31T15:52:08.580Z,96442.91
2023-01-31T15:54:35.188Z,96434.38
2023-01-31T15:57:02.614Z,96430.47
2023-01-31T15:59:30.958Z,96443.94
2023-01-31T16:01:59.859Z,96477.22
2023-01-31T16:04:27.554Z,96476.28
2023-01-31T16:06:54.481Z,96414.19
2023-01-31T16:09:24.194Z,96359.50
2023-01-31T16:11:50.964Z,96316.88
2023-01-31T16:14:17.560Z,96393.94
2023-01-31T16:16:47.993Z,96402.75
2023-01-31T16:19:19.102Z,96339.28
2023-01-31T16:21:46.405Z,96350.81
2023-01-31T16:24:20.072Z,96344.69
2023-01-31T16:27:07.075Z,96367.41
2023-01-31T16:29:46.432Z,96286.94
2023-01-31T16:32:19.710Z,96335.09
2023-01-31T16:34:51.912Z,96307.84
2023-01-31T16:37:28.373Z,96422.72
2023-01-31T16:39:59.472Z,96497.94
2023-01-31T16:42:29.350Z,96524.78
2023-01-31T16:44:57.927Z,96536.03
2023-01-31T16:47:39.739Z,96462.13
2023-01-31T16:50:22.650Z,96377.94
2023-01-31T16:52:51.798Z,96284.59
2023-01-31T16:55:24.334Z,96241.72
2023-01-31T16:57:50.905Z,96253.53
2023-01-31T17:00:23.464Z,96219.41
2023-01-31T17:02:50.925Z,96202.19
2023-01-31T17:05:20.785Z,96166.25
2023-01-31T17:07:49.038Z,96097.25
2023-01-31T17:10:23.673Z,96060.75
2023-01-31T17:12:52.671Z,96033.56
2023-01-31T17:15:20.423Z,95925.56
2023-01-31T17:17:48.039Z,95881.78
2023-01-31T17:20:15.880Z,95830.97
2023-01-31T17:22:45.696Z,95832.22
2023-01-31T17:25:23.146Z,95953.69
2023-01-31T17:27:49.881Z,96043.50
2023-01-31T17:30:17.784Z,96052.09
2023-01-31T17:32:44.396Z,96026.94
2023-01-31T17:35:31.557Z,96042.38
2023-01-31T17:37:58.552Z,96007.31
2023-01-31T17:40:25.082Z,95967.31
2023-01-31T17:42:57.038Z,95924.78
2023-01-31T17:45:24.797Z,95886.13
2023-01-31T17:47:51.528Z,95960.66
2023-01-31T17:50:22.468Z,95996.50
2023-01-31T17:52:48.993Z,96012.84
2023-01-31T17:55:16.078Z,95956.75
2023-01-31T17:57:42.610Z,95970.69
2023-01-31T18:00:11.621Z,95991.91
2023-01-31T18:02:38.598Z,95953.25
2023-01-31T18:05:05.530Z,95857.06
2023-01-31T18:07:32.044Z,95786.34
2023-01-31T18:09:58.555Z,95832.44
2023-01-31T18:12:25.040Z,95878.44
2023-01-31T18:14:51.549Z,95821.66
2023-01-31T18:17:19.820Z,95738.75
2023-01-31T18:19:46.425Z,95728.31
2023-01-31T18:22:14.251Z,95760.47
2023-01-31T18:24:41.061Z,95794.88
2023-01-31T18:27:07.543Z,95780.69
2023-01-31T18:29:34.057Z,95739.81
2023-01-31T18:32:02.687Z,95703.41
2023-01-31T18:34:30.416Z,95685.84
2023-01-31T18:36:58.629Z,95661.03
2023-01-31T18:39:26.317Z,95615.06
2023-01-31T18:41:53.443Z,95592.31
2023-01-31T18:44:20.136Z,95596.03
2023-01-31T18:46:46.710Z,95659.19
2023-01-31T18:49:14.125Z,95689.50
2023-01-31T18:51:44.016Z,95692.81
2023-01-31T18:54:12.016Z,95708.97
2023-01-31T18:56:39.921Z,95725.25
2023-01-31T18:59:07.853Z,95692.75
2023-01-31T19:01:34.307Z,95608.16
2023-01-31T19:04:02.630Z,95658.13
2023-01-31T19:06:30.672Z,95666.28
2023-01-31T19:08:57.979Z,95661.06
2023-01-31T19:11:26.150Z,95649.19
2023-01-31T19:13:52.871Z,95638.25
2023-01-31T19:16:20.792Z,95590.31
2023-01-31T19:18:48.175Z,95504.38
2023-01-31T19:21:22.198Z,95529.03
2023-01-31T19:23:50.572Z,95504.63
2023-01-31T19:26:17.910Z,95503.78
2023-01-31T19:28:44.968Z,95512.22
2023-01-31T19:31:13.182Z,95479.63
2023-01-31T19:33:40.361Z,95479.44
2023-01-31T19:36:10.986Z,95473.66
2023-01-31T19:38:39.057Z,95478.59
2023-01-31T19:41:10.286Z,95460.91
2023-01-31T19:43:37.535Z,95467.94
2023-01-31T19:46:04.559Z,95421.06
2023-01-31T19:48:31.433Z,95413.19
2023-01-31T19:50:59.222Z,95354.34
2023-01-31T19:53:27.145Z,95367.50
2023-01-31T19:55:56.616Z,95329.25
2023-01-31T19:58:32.119Z,95265.78
2023-01-31T20:00:59.283Z,95185.22
2023-01-31T20:03:25.764Z,95195.81
2023-01-31T20:05:52.357Z,95246.00
2023-01-31T20:08:18.965Z,95172.66
2023-01-31T20:10:45.400Z,95133.19
2023-01-31T20:13:13.191Z,95209.59
2023-01-31T20:15:39.756Z,95244.72
2023-01-31T20:18:07.411Z,95242.72
2023-01-31T20:20:33.934Z,95169.97
2023-01-31T20:23:01.665Z,95196.00
2023-01-31T20:25:28.204Z,95124.94
2023-01-31T20:27:56.039Z,95091.09
2023-01-31T20:30:23.678Z,95093.88
2023-01-31T20:32:50.485Z,95095.44
2023-01-31T20:35:17.146Z,95132.69
2023-01-31T20:37:44.044Z,95075.41
2023-01-31T20:40:12.446Z,95038.63
2023-01-31T20:42:38.905Z,95053.06
2023-01-31T20:45:07.245Z,95043.75
2023-01-31T20:47:35.129Z,95078.78
2023-01-31T20:50:02.765Z,95073.66
2023-01-31T20:52:29.243Z,95062.03
2023-01-31T20:54:55.780Z,95039.69
2023-01-31T20:57:24.473Z,94999.03
2023-01-31T20:59:50.969Z,94939.06
2023-01-31T21:02:17.483Z,94951.84
2023-01-31T21:04:43.993Z,94906.09
2023-01-31T21:07:10.503Z,94835.16
2023-01-31T21:09:36.982Z,94787.84
2023-01-31T21:12:03.530Z,94659.09
2023-01-31T21:14:30.024Z,94587.94
2023-01-31T21:16:56.564Z,94673.75
2023-01-31T21:19:23.019Z,94724.75
2023-01-31T21:21:49.461Z,94729.38
2023-01-31T21:24:17.261Z,94724.38
2023-01-31T21:26:44.958Z,94739.81
2023-01-31T21:29:11.411Z,94792.03
2023-01-31T21:31:37.970Z,94811.13
2023-01-31T21:34:07.902Z,94889.16
2023-01-31T21:36:36.351Z,94936.63
2023-01-31T21:39:06.011Z,94931.06
2023-01-31T21:41:51.767Z,94907.63
2023-01-31T21:44:18.403Z,94858.84
2023-01-31T21:46:46.731Z,94843.94
2023-01-31T21:49:14.858Z,94820.44
2023-01-31T21:51:41.342Z,94798.31
2023-01-31T21:54:08.857Z,94827.72
2023-01-31T21:56:35.412Z,94892.53
2023-01-31T21:59:02.813Z,94919.84
2023-01-31T22:01:30.571Z,94902.44
2023-01-31T22:03:57.144Z,94893.41
2023-01-31T22:06:31.226Z,94903.00
2023-01-31T22:08:59.070Z,94902.66
2023-01-31T22:11:25.716Z,94899.41
2023-01-31T22:13:55.801Z,94963.91
2023-01-31T22:16:22.962Z,94990.91
2023-01-31T22:18:49.606Z,94961.66
2023-01-31T22:21:17.835Z,94948.53
2023-01-31T22:23:49.063Z,94904.91
2023-01-31T22:26:18.083Z,94897.53
2023-01-31T22:28:44.567Z,94915.56
2023-01-31T22:31:11.847Z,94915.81
2023-01-31T22:33:40.283Z,94937.75
2023-01-31T22:36:08.053Z,94978.16
2023-01-31T22:38:35.897Z,95007.53
2023-01-31T22:41:03.796Z,95019.81
2023-01-31T22:43:30.618Z,95024.38
2023-01-31T22:46:01.318Z,94985.94
2023-01-31T22:48:27.788Z,94939.69
2023-01-31T22:51:02.876Z,94899.63
2023-01-31T22:53:30.798Z,94880.22
2023-01-31T22:56:02.929Z,94865.06
2023-01-31T22:58:31.098Z,94859.31
2023-01-31T23:00:58.295Z,94855.16
2023-01-31T23:03:25.353Z,94852.19
2023-01-31T23:05:51.855Z,94847.66
2023-01-31T23:08:18.576Z,94858.50
2023-01-31T23:10:45.393Z,94861.59
2023-01-31T23:13:12.985Z,94855.84
2023-01-31T23:15:39.567Z,94882.03
2023-01-31T23:18:06.564Z,94931.34
2023-01-31T23:20:33.200Z,95040.25
2023-01-31T23:23:01.091Z,95161.56
2023-01-31T23:25:29.259Z,95242.56
2023-01-31T23:27:56.768Z,95310.13
2023-01-31T23:30:23.981Z,95351.53
2023-01-31T23:32:51.216Z,95367.41
2023-01-31T23:35:19.175Z,95353.94
2023-01-31T23:37:46.399Z,95357.34
2023-01-31T23:40:13.950Z,95375.75
2023-01-31T23:42:40.707Z,95386.69
2023-01-31T23:45:07.465Z,95393.22
2023-01-31T23:47:33.914Z,95422.16
2023-01-31T23:50:00.480Z,95426.22
2023-01-31T23:52:26.930Z,95409.72
2023-01-31T23:54:53.444Z,95384.69
2023-01-31T23:57:20.029Z,95367.88
2023-01-31T23:59:47.050Z,95388.00
